sensor_id;sensor_type;location;lat;lon;timestamp;P1;durP1;ratioP1;P2;durP2;ratioP2
66707;SDS011;53622;0.000;0.000;2022-09-09T00:01:20;0.70;;;0.50;;
66707;SDS011;53622;0.000;0.000;2022-09-09T00:04:00;0.80;;;0.40;;
66707;SDS011;53622;0.000;0.000;2022-09-09T00:06:43;0.57;;;0.57;;
66707;SDS011;53622;0.000;0.000;2022-09-09T00:09:16;0.63;;;0.50;;
66707;SDS011;53622;0.000;0.000;2022-09-09T00:11:47;0.93;;;0.52;;
66707;SDS011;53622;0.000;0.000;2022-09-09T00:14:22;1.38;;;0.55;;
66707;SDS011;53622;0.000;0.000;2022-09-09T00:16:58;0.60;;;0.60;;
66707;SDS011;53622;0.000;0.000;2022-09-09T00:19:32;1.90;;;0.50;;
66707;SDS011;53622;0.000;0.000;2022-09-09T00:22:12;0.55;;;0.50;;
66707;SDS011;53622;0.000;0.000;2022-09-09T00:24:46;2.85;;;0.50;;
66707;SDS011;53622;0.000;0.000;2022-09-09T00:27:23;0.68;;;0.38;;
66707;SDS011;53622;0.000;0.000;2022-09-09T00:29:58;2.00;;;0.45;;
66707;SDS011;53622;0.000;0.000;2022-09-09T00:32:41;0.82;;;0.55;;
66707;SDS011;53622;0.000;0.000;2022-09-09T00:35:14;0.40;;;0.40;;
66707;SDS011;53622;0.000;0.000;2022-09-09T00:37:47;1.67;;;0.50;;
66707;SDS011;53622;0.000;0.000;2022-09-09T00:40:24;0.57;;;0.57;;
66707;SDS011;53622;0.000;0.000;2022-09-09T00:43:05;1.17;;;0.57;;
66707;SDS011;53622;0.000;0.000;2022-09-09T00:46:01;0.80;;;0.57;;
66707;SDS011;53622;0.000;0.000;2022-09-09T00:48:54;0.60;;;0.60;;
66707;SDS011;53622;0.000;0.000;2022-09-09T00:51:33;0.40;;;0.40;;
66707;SDS011;53622;0.000;0.000;2022-09-09T00:54:17;0.30;;;0.30;;
66707;SDS011;53622;0.000;0.000;2022-09-09T00:57:00;0.85;;;0.40;;
66707;SDS011;53622;0.000;0.000;2022-09-09T00:59:44;0.45;;;0.43;;
66707;SDS011;53622;0.000;0.000;2022-09-09T01:02:21;1.70;;;0.50;;
66707;SDS011;53622;0.000;0.000;2022-09-09T01:04:59;0.70;;;0.70;;
66707;SDS011;53622;0.000;0.000;2022-09-09T01:07:35;0.60;;;0.60;;
66707;SDS011;53622;0.000;0.000;2022-09-09T01:10:06;0.70;;;0.68;;
66707;SDS011;53622;0.000;0.000;2022-09-09T01:12:46;0.88;;;0.40;;
66707;SDS011;53622;0.000;0.000;2022-09-09T01:15:20;1.38;;;0.55;;
66707;SDS011;53622;0.000;0.000;2022-09-09T01:17:55;1.27;;;0.60;;
66707;SDS011;53622;0.000;0.000;2022-09-09T01:20:31;0.85;;;0.50;;
66707;SDS011;53622;0.000;0.000;2022-09-09T01:23:13;1.23;;;0.60;;
66707;SDS011;53622;0.000;0.000;2022-09-09T01:26:26;1.27;;;0.50;;
66707;SDS011;53622;0.000;0.000;2022-09-09T01:29:02;1.10;;;0.75;;
66707;SDS011;53622;0.000;0.000;2022-09-09T01:31:38;1.20;;;0.60;;
66707;SDS011;53622;0.000;0.000;2022-09-09T01:34:10;1.10;;;0.50;;
66707;SDS011;53622;0.000;0.000;2022-09-09T01:36:42;0.75;;;0.50;;
66707;SDS011;53622;0.000;0.000;2022-09-09T01:39:15;1.48;;;0.52;;
66707;SDS011;53622;0.000;0.000;2022-09-09T01:41:50;0.88;;;0.52;;
66707;SDS011;53622;0.000;0.000;2022-09-09T01:44:19;0.52;;;0.52;;
66707;SDS011;53622;0.000;0.000;2022-09-09T01:46:49;1.42;;;0.60;;
66707;SDS011;53622;0.000;0.000;2022-09-09T01:49:20;0.63;;;0.47;;
66707;SDS011;53622;0.000;0.000;2022-09-09T01:51:50;0.47;;;0.47;;
66707;SDS011;53622;0.000;0.000;2022-09-09T01:54:33;1.45;;;0.30;;
66707;SDS011;53622;0.000;0.000;2022-09-09T01:57:11;2.45;;;0.75;;
66707;SDS011;53622;0.000;0.000;2022-09-09T01:59:49;0.40;;;0.40;;
66707;SDS011;53622;0.000;0.000;2022-09-09T02:02:30;1.08;;;0.57;;
66707;SDS011;53622;0.000;0.000;2022-09-09T02:05:15;0.98;;;0.50;;
66707;SDS011;53622;0.000;0.000;2022-09-09T02:07:53;1.48;;;0.45;;
66707;SDS011;53622;0.000;0.000;2022-09-09T02:10:37;1.40;;;0.50;;
66707;SDS011;53622;0.000;0.000;2022-09-09T02:13:22;1.73;;;0.50;;
66707;SDS011;53622;0.000;0.000;2022-09-09T02:15:55;1.20;;;0.60;;
66707;SDS011;53622;0.000;0.000;2022-09-09T02:18:30;3.25;;;0.70;;
66707;SDS011;53622;0.000;0.000;2022-09-09T02:21:04;0.88;;;0.43;;
66707;SDS011;53622;0.000;0.000;2022-09-09T02:23:35;0.50;;;0.50;;
66707;SDS011;53622;0.000;0.000;2022-09-09T02:26:09;1.75;;;0.43;;
66707;SDS011;53622;0.000;0.000;2022-09-09T02:28:43;0.57;;;0.55;;
66707;SDS011;53622;0.000;0.000;2022-09-09T02:31:13;0.82;;;0.50;;
66707;SDS011;53622;0.000;0.000;2022-09-09T02:33:47;0.68;;;0.40;;
66707;SDS011;53622;0.000;0.000;2022-09-09T02:36:21;1.95;;;0.68;;
66707;SDS011;53622;0.000;0.000;2022-09-09T02:38:53;0.50;;;0.45;;
66707;SDS011;53622;0.000;0.000;2022-09-09T02:41:28;0.45;;;0.40;;
66707;SDS011;53622;0.000;0.000;2022-09-09T02:44:05;0.77;;;0.50;;
66707;SDS011;53622;0.000;0.000;2022-09-09T02:46:36;0.50;;;0.47;;
66707;SDS011;53622;0.000;0.000;2022-09-09T02:49:22;0.47;;;0.47;;
66707;SDS011;53622;0.000;0.000;2022-09-09T02:51:57;1.92;;;0.50;;
66707;SDS011;53622;0.000;0.000;2022-09-09T02:54:35;0.82;;;0.50;;
66707;SDS011;53622;0.000;0.000;2022-09-09T02:57:11;0.95;;;0.40;;
66707;SDS011;53622;0.000;0.000;2022-09-09T02:59:48;0.55;;;0.50;;
66707;SDS011;53622;0.000;0.000;2022-09-09T03:02:19;0.45;;;0.45;;
66707;SDS011;53622;0.000;0.000;2022-09-09T03:04:53;0.68;;;0.50;;
66707;SDS011;53622;0.000;0.000;2022-09-09T03:07:23;0.50;;;0.50;;
66707;SDS011;53622;0.000;0.000;2022-09-09T03:09:52;0.70;;;0.50;;
66707;SDS011;53622;0.000;0.000;2022-09-09T03:12:25;1.65;;;0.60;;
66707;SDS011;53622;0.000;0.000;2022-09-09T03:14:55;2.35;;;0.50;;
66707;SDS011;53622;0.000;0.000;2022-09-09T03:17:25;0.40;;;0.40;;
66707;SDS011;53622;0.000;0.000;2022-09-09T03:19:56;1.02;;;0.40;;
66707;SDS011;53622;0.000;0.000;2022-09-09T03:22:26;0.65;;;0.50;;
66707;SDS011;53622;0.000;0.000;2022-09-09T03:24:58;0.30;;;0.30;;
66707;SDS011;53622;0.000;0.000;2022-09-09T03:27:27;2.13;;;0.50;;
66707;SDS011;53622;0.000;0.000;2022-09-09T03:29:59;0.63;;;0.60;;
66707;SDS011;53622;0.000;0.000;2022-09-09T03:32:30;0.47;;;0.40;;
66707;SDS011;53622;0.000;0.000;2022-09-09T03:35:00;0.55;;;0.40;;
66707;SDS011;53622;0.000;0.000;2022-09-09T03:37:30;0.40;;;0.40;;
66707;SDS011;53622;0.000;0.000;2022-09-09T03:39:59;0.88;;;0.50;;
66707;SDS011;53622;0.000;0.000;2022-09-09T03:42:28;1.50;;;0.50;;
66707;SDS011;53622;0.000;0.000;2022-09-09T03:45:01;0.43;;;0.40;;
66707;SDS011;53622;0.000;0.000;2022-09-09T03:47:31;1.05;;;0.50;;
66707;SDS011;53622;0.000;0.000;2022-09-09T03:50:05;1.30;;;0.40;;
66707;SDS011;53622;0.000;0.000;2022-09-09T03:52:40;0.85;;;0.30;;
66707;SDS011;53622;0.000;0.000;2022-09-09T03:55:16;0.43;;;0.40;;
66707;SDS011;53622;0.000;0.000;2022-09-09T03:57:45;1.48;;;0.43;;
66707;SDS011;53622;0.000;0.000;2022-09-09T04:00:16;0.68;;;0.50;;
66707;SDS011;53622;0.000;0.000;2022-09-09T04:02:51;0.93;;;0.50;;
66707;SDS011;53622;0.000;0.000;2022-09-09T04:05:21;2.00;;;0.50;;
66707;SDS011;53622;0.000;0.000;2022-09-09T04:07:50;0.70;;;0.50;;
66707;SDS011;53622;0.000;0.000;2022-09-09T04:10:20;0.75;;;0.60;;
66707;SDS011;53622;0.000;0.000;2022-09-09T04:12:53;1.42;;;0.52;;
66707;SDS011;53622;0.000;0.000;2022-09-09T04:15:23;0.50;;;0.50;;
66707;SDS011;53622;0.000;0.000;2022-09-09T04:17:53;0.70;;;0.70;;
66707;SDS011;53622;0.000;0.000;2022-09-09T04:20:22;0.40;;;0.30;;
66707;SDS011;53622;0.000;0.000;2022-09-09T04:22:52;4.43;;;0.60;;
66707;SDS011;53622;0.000;0.000;2022-09-09T04:25:21;2.88;;;0.60;;
66707;SDS011;53622;0.000;0.000;2022-09-09T04:27:53;0.98;;;0.73;;
66707;SDS011;53622;0.000;0.000;2022-09-09T04:30:24;5.63;;;0.57;;
66707;SDS011;53622;0.000;0.000;2022-09-09T04:32:54;4.63;;;1.13;;
66707;SDS011;53622;0.000;0.000;2022-09-09T04:35:25;4.30;;;0.50;;
66707;SDS011;53622;0.000;0.000;2022-09-09T04:37:55;2.72;;;0.90;;
66707;SDS011;53622;0.000;0.000;2022-09-09T04:40:25;3.53;;;0.70;;
66707;SDS011;53622;0.000;0.000;2022-09-09T04:42:57;3.63;;;1.05;;
66707;SDS011;53622;0.000;0.000;2022-09-09T04:45:27;2.15;;;0.70;;
66707;SDS011;53622;0.000;0.000;2022-09-09T04:47:58;3.55;;;0.85;;
66707;SDS011;53622;0.000;0.000;2022-09-09T04:50:27;6.53;;;0.70;;
66707;SDS011;53622;0.000;0.000;2022-09-09T04:52:59;5.13;;;1.10;;
66707;SDS011;53622;0.000;0.000;2022-09-09T04:55:29;7.03;;;1.35;;
66707;SDS011;53622;0.000;0.000;2022-09-09T04:58:02;6.53;;;1.08;;
66707;SDS011;53622;0.000;0.000;2022-09-09T05:00:34;3.53;;;0.70;;
66707;SDS011;53622;0.000;0.000;2022-09-09T05:03:06;2.78;;;0.57;;
66707;SDS011;53622;0.000;0.000;2022-09-09T05:05:36;9.23;;;0.90;;
66707;SDS011;53622;0.000;0.000;2022-09-09T05:08:06;2.67;;;0.70;;
66707;SDS011;53622;0.000;0.000;2022-09-09T05:10:37;6.03;;;0.90;;
66707;SDS011;53622;0.000;0.000;2022-09-09T05:13:09;1.52;;;0.60;;
66707;SDS011;53622;0.000;0.000;2022-09-09T05:15:39;4.72;;;1.10;;
66707;SDS011;53622;0.000;0.000;2022-09-09T05:18:10;3.08;;;0.90;;
66707;SDS011;53622;0.000;0.000;2022-09-09T05:20:39;2.83;;;0.93;;
66707;SDS011;53622;0.000;0.000;2022-09-09T05:23:10;2.47;;;0.57;;
66707;SDS011;53622;0.000;0.000;2022-09-09T05:25:40;2.60;;;0.70;;
66707;SDS011;53622;0.000;0.000;2022-09-09T05:28:10;2.95;;;0.80;;
66707;SDS011;53622;0.000;0.000;2022-09-09T05:30:41;2.90;;;1.08;;
66707;SDS011;53622;0.000;0.000;2022-09-09T05:33:10;2.35;;;0.80;;
66707;SDS011;53622;0.000;0.000;2022-09-09T05:35:40;1.83;;;0.73;;
66707;SDS011;53622;0.000;0.000;2022-09-09T05:38:09;4.05;;;0.77;;
66707;SDS011;53622;0.000;0.000;2022-09-09T05:40:38;2.38;;;0.55;;
66707;SDS011;53622;0.000;0.000;2022-09-09T05:43:09;2.35;;;0.60;;
66707;SDS011;53622;0.000;0.000;2022-09-09T05:45:39;1.95;;;0.68;;
66707;SDS011;53622;0.000;0.000;2022-09-09T05:48:10;2.53;;;0.60;;
66707;SDS011;53622;0.000;0.000;2022-09-09T05:50:39;1.10;;;0.60;;
66707;SDS011;53622;0.000;0.000;2022-09-09T05:53:09;1.13;;;0.60;;
66707;SDS011;53622;0.000;0.000;2022-09-09T05:55:40;0.70;;;0.50;;
66707;SDS011;53622;0.000;0.000;2022-09-09T05:58:09;2.28;;;0.60;;
66707;SDS011;53622;0.000;0.000;2022-09-09T06:00:39;1.40;;;0.60;;
66707;SDS011;53622;0.000;0.000;2022-09-09T06:03:10;2.30;;;0.65;;
66707;SDS011;53622;0.000;0.000;2022-09-09T06:05:40;2.25;;;0.60;;
66707;SDS011;53622;0.000;0.000;2022-09-09T06:08:09;1.67;;;0.65;;
66707;SDS011;53622;0.000;0.000;2022-09-09T06:10:38;1.90;;;0.70;;
66707;SDS011;53622;0.000;0.000;2022-09-09T06:13:07;1.48;;;0.50;;
66707;SDS011;53622;0.000;0.000;2022-09-09T06:15:38;1.92;;;0.68;;
66707;SDS011;53622;0.000;0.000;2022-09-09T06:18:08;0.95;;;0.57;;
66707;SDS011;53622;0.000;0.000;2022-09-09T06:20:38;1.50;;;0.60;;
66707;SDS011;53622;0.000;0.000;2022-09-09T06:23:08;2.15;;;0.70;;
66707;SDS011;53622;0.000;0.000;2022-09-09T06:25:37;1.67;;;0.60;;
66707;SDS011;53622;0.000;0.000;2022-09-09T06:28:08;1.38;;;0.55;;
66707;SDS011;53622;0.000;0.000;2022-09-09T06:30:37;2.60;;;0.70;;
66707;SDS011;53622;0.000;0.000;2022-09-09T06:33:07;0.70;;;0.52;;
66707;SDS011;53622;0.000;0.000;2022-09-09T06:35:36;1.25;;;0.55;;
66707;SDS011;53622;0.000;0.000;2022-09-09T06:38:07;3.13;;;0.85;;
66707;SDS011;53622;0.000;0.000;2022-09-09T06:40:37;1.83;;;0.55;;
66707;SDS011;53622;0.000;0.000;2022-09-09T06:43:07;1.27;;;0.65;;
66707;SDS011;53622;0.000;0.000;2022-09-09T06:45:40;0.85;;;0.68;;
66707;SDS011;53622;0.000;0.000;2022-09-09T06:48:10;0.88;;;0.60;;
66707;SDS011;53622;0.000;0.000;2022-09-09T06:50:40;1.25;;;0.60;;
66707;SDS011;53622;0.000;0.000;2022-09-09T06:53:10;1.60;;;0.55;;
66707;SDS011;53622;0.000;0.000;2022-09-09T06:55:39;1.15;;;0.50;;
66707;SDS011;53622;0.000;0.000;2022-09-09T06:58:12;1.13;;;0.50;;
66707;SDS011;53622;0.000;0.000;2022-09-09T07:00:41;0.65;;;0.47;;
66707;SDS011;53622;0.000;0.000;2022-09-09T07:03:10;0.70;;;0.63;;
66707;SDS011;53622;0.000;0.000;2022-09-09T07:05:42;1.98;;;0.70;;
66707;SDS011;53622;0.000;0.000;2022-09-09T07:08:11;0.68;;;0.57;;
66707;SDS011;53622;0.000;0.000;2022-09-09T07:10:41;0.70;;;0.50;;
66707;SDS011;53622;0.000;0.000;2022-09-09T07:13:11;2.55;;;0.57;;
66707;SDS011;53622;0.000;0.000;2022-09-09T07:15:42;0.70;;;0.50;;
66707;SDS011;53622;0.000;0.000;2022-09-09T07:18:12;0.40;;;0.40;;
66707;SDS011;53622;0.000;0.000;2022-09-09T07:20:42;1.00;;;0.57;;
66707;SDS011;53622;0.000;0.000;2022-09-09T07:23:21;0.85;;;0.50;;
66707;SDS011;53622;0.000;0.000;2022-09-09T07:25:50;0.65;;;0.40;;
66707;SDS011;53622;0.000;0.000;2022-09-09T07:28:20;1.00;;;0.60;;
66707;SDS011;53622;0.000;0.000;2022-09-09T07:30:53;1.10;;;0.50;;
66707;SDS011;53622;0.000;0.000;2022-09-09T07:33:23;5.25;;;0.75;;
66707;SDS011;53622;0.000;0.000;2022-09-09T07:36:01;1.05;;;0.47;;
66707;SDS011;53622;0.000;0.000;2022-09-09T07:38:36;1.88;;;0.57;;
66707;SDS011;53622;0.000;0.000;2022-09-09T07:41:08;2.58;;;0.60;;
66707;SDS011;53622;0.000;0.000;2022-09-09T07:43:39;2.35;;;0.50;;
66707;SDS011;53622;0.000;0.000;2022-09-09T07:46:09;1.80;;;0.70;;
66707;SDS011;53622;0.000;0.000;2022-09-09T07:48:44;0.40;;;0.40;;
66707;SDS011;53622;0.000;0.000;2022-09-09T07:51:16;0.65;;;0.60;;
66707;SDS011;53622;0.000;0.000;2022-09-09T07:53:48;1.00;;;0.50;;
66707;SDS011;53622;0.000;0.000;2022-09-09T07:56:20;1.77;;;0.50;;
66707;SDS011;53622;0.000;0.000;2022-09-09T07:58:51;2.30;;;0.70;;
66707;SDS011;53622;0.000;0.000;2022-09-09T08:01:22;1.58;;;0.60;;
66707;SDS011;53622;0.000;0.000;2022-09-09T08:03:54;0.60;;;0.43;;
66707;SDS011;53622;0.000;0.000;2022-09-09T08:06:28;0.70;;;0.57;;
66707;SDS011;53622;0.000;0.000;2022-09-09T08:08:58;0.75;;;0.47;;
66707;SDS011;53622;0.000;0.000;2022-09-09T08:11:28;0.60;;;0.50;;
66707;SDS011;53622;0.000;0.000;2022-09-09T08:14:05;0.85;;;0.57;;
66707;SDS011;53622;0.000;0.000;2022-09-09T08:16:37;0.93;;;0.60;;
66707;SDS011;53622;0.000;0.000;2022-09-09T08:19:07;1.45;;;0.65;;
66707;SDS011;53622;0.000;0.000;2022-09-09T08:21:39;0.70;;;0.40;;
66707;SDS011;53622;0.000;0.000;2022-09-09T08:24:11;0.40;;;0.40;;
66707;SDS011;53622;0.000;0.000;2022-09-09T08:26:46;0.60;;;0.50;;
66707;SDS011;53622;0.000;0.000;2022-09-09T08:29:21;0.75;;;0.63;;
66707;SDS011;53622;0.000;0.000;2022-09-09T08:31:52;0.52;;;0.50;;
66707;SDS011;53622;0.000;0.000;2022-09-09T08:34:25;0.98;;;0.60;;
66707;SDS011;53622;0.000;0.000;2022-09-09T08:36:58;0.57;;;0.55;;
66707;SDS011;53622;0.000;0.000;2022-09-09T08:39:34;2.75;;;0.50;;
66707;SDS011;53622;0.000;0.000;2022-09-09T08:42:16;0.73;;;0.60;;
66707;SDS011;53622;0.000;0.000;2022-09-09T08:45:14;0.50;;;0.50;;
66707;SDS011;53622;0.000;0.000;2022-09-09T08:47:52;1.10;;;0.50;;
66707;SDS011;53622;0.000;0.000;2022-09-09T08:50:32;0.65;;;0.63;;
66707;SDS011;53622;0.000;0.000;2022-09-09T08:53:14;0.50;;;0.50;;
66707;SDS011;53622;0.000;0.000;2022-09-09T08:55:51;0.95;;;0.50;;
66707;SDS011;53622;0.000;0.000;2022-09-09T08:58:43;1.30;;;0.60;;
66707;SDS011;53622;0.000;0.000;2022-09-09T09:01:24;0.60;;;0.50;;
66707;SDS011;53622;0.000;0.000;2022-09-09T09:04:26;1.25;;;0.50;;
66707;SDS011;53622;0.000;0.000;2022-09-09T09:07:18;0.55;;;0.55;;
66707;SDS011;53622;0.000;0.000;2022-09-09T09:10:03;1.08;;;0.50;;
66707;SDS011;53622;0.000;0.000;2022-09-09T09:13:02;1.67;;;0.40;;
66707;SDS011;53622;0.000;0.000;2022-09-09T09:15:36;0.50;;;0.50;;
66707;SDS011;53622;0.000;0.000;2022-09-09T09:18:09;2.50;;;0.60;;
66707;SDS011;53622;0.000;0.000;2022-09-09T09:20:47;1.35;;;0.50;;
66707;SDS011;53622;0.000;0.000;2022-09-09T09:23:29;2.25;;;0.60;;
66707;SDS011;53622;0.000;0.000;2022-09-09T09:26:07;2.05;;;0.70;;
66707;SDS011;53622;0.000;0.000;2022-09-09T09:28:40;1.65;;;0.60;;
66707;SDS011;53622;0.000;0.000;2022-09-09T09:31:15;0.73;;;0.70;;
66707;SDS011;53622;0.000;0.000;2022-09-09T09:33:48;2.08;;;0.40;;
66707;SDS011;53622;0.000;0.000;2022-09-09T09:36:24;0.75;;;0.50;;
66707;SDS011;53622;0.000;0.000;2022-09-09T09:39:06;2.85;;;0.70;;
66707;SDS011;53622;0.000;0.000;2022-09-09T09:42:08;0.60;;;0.50;;
66707;SDS011;53622;0.000;0.000;2022-09-09T09:44:45;1.27;;;0.43;;
66707;SDS011;53622;0.000;0.000;2022-09-09T09:47:19;1.10;;;0.30;;
66707;SDS011;53622;0.000;0.000;2022-09-09T09:50:20;0.85;;;0.35;;
66707;SDS011;53622;0.000;0.000;2022-09-09T09:52:55;0.90;;;0.52;;
66707;SDS011;53622;0.000;0.000;2022-09-09T09:55:28;0.50;;;0.50;;
66707;SDS011;53622;0.000;0.000;2022-09-09T09:58:03;0.40;;;0.40;;
66707;SDS011;53622;0.000;0.000;2022-09-09T10:00:34;0.57;;;0.57;;
66707;SDS011;53622;0.000;0.000;2022-09-09T10:03:13;0.50;;;0.50;;
66707;SDS011;53622;0.000;0.000;2022-09-09T10:05:54;1.95;;;0.52;;
66707;SDS011;53622;0.000;0.000;2022-09-09T10:08:24;1.35;;;0.73;;
66707;SDS011;53622;0.000;0.000;2022-09-09T10:11:06;0.85;;;0.50;;
66707;SDS011;53622;0.000;0.000;2022-09-09T10:13:53;1.02;;;0.40;;
66707;SDS011;53622;0.000;0.000;2022-09-09T10:16:35;1.30;;;0.50;;
66707;SDS011;53622;0.000;0.000;2022-09-09T10:19:15;1.13;;;0.40;;
66707;SDS011;53622;0.000;0.000;2022-09-09T10:21:57;0.38;;;0.30;;
66707;SDS011;53622;0.000;0.000;2022-09-09T10:24:47;0.52;;;0.50;;
66707;SDS011;53622;0.000;0.000;2022-09-09T10:27:30;0.68;;;0.60;;
66707;SDS011;53622;0.000;0.000;2022-09-09T10:30:14;3.05;;;0.50;;
66707;SDS011;53622;0.000;0.000;2022-09-09T10:32:47;0.60;;;0.40;;
66707;SDS011;53622;0.000;0.000;2022-09-09T10:35:26;0.40;;;0.40;;
66707;SDS011;53622;0.000;0.000;2022-09-09T10:38:03;0.63;;;0.40;;
66707;SDS011;53622;0.000;0.000;2022-09-09T10:40:48;0.95;;;0.60;;
66707;SDS011;53622;0.000;0.000;2022-09-09T10:43:48;0.80;;;0.50;;
66707;SDS011;53622;0.000;0.000;2022-09-09T10:46:42;0.50;;;0.50;;
66707;SDS011;53622;0.000;0.000;2022-09-09T10:49:23;0.55;;;0.55;;
66707;SDS011;53622;0.000;0.000;2022-09-09T10:52:08;1.65;;;0.60;;
66707;SDS011;53622;0.000;0.000;2022-09-09T10:54:46;2.08;;;0.45;;
66707;SDS011;53622;0.000;0.000;2022-09-09T10:57:25;0.52;;;0.50;;
66707;SDS011;53622;0.000;0.000;2022-09-09T11:00:01;5.18;;;0.68;;
66707;SDS011;53622;0.000;0.000;2022-09-09T11:02:34;5.88;;;0.80;;
66707;SDS011;53622;0.000;0.000;2022-09-09T11:05:08;6.35;;;0.60;;
66707;SDS011;53622;0.000;0.000;2022-09-09T11:07:44;4.32;;;0.90;;
66707;SDS011;53622;0.000;0.000;2022-09-09T11:10:21;4.30;;;0.70;;
66707;SDS011;53622;0.000;0.000;2022-09-09T11:12:56;2.47;;;0.77;;
66707;SDS011;53622;0.000;0.000;2022-09-09T11:15:28;4.38;;;0.98;;
66707;SDS011;53622;0.000;0.000;2022-09-09T11:18:06;3.90;;;0.70;;
66707;SDS011;53622;0.000;0.000;2022-09-09T11:20:40;2.45;;;0.80;;
66707;SDS011;53622;0.000;0.000;2022-09-09T11:23:11;4.85;;;0.93;;
66707;SDS011;53622;0.000;0.000;2022-09-09T11:25:44;2.67;;;0.88;;
66707;SDS011;53622;0.000;0.000;2022-09-09T11:28:24;2.00;;;0.60;;
66707;SDS011;53622;0.000;0.000;2022-09-09T11:31:09;3.72;;;0.93;;
66707;SDS011;53622;0.000;0.000;2022-09-09T11:34:00;2.20;;;1.40;;
66707;SDS011;53622;0.000;0.000;2022-09-09T11:36:40;2.90;;;1.35;;
66707;SDS011;53622;0.000;0.000;2022-09-09T11:42:19;4.75;;;1.10;;
66707;SDS011;53622;0.000;0.000;2022-09-09T11:44:51;1.88;;;0.88;;
66707;SDS011;53622;0.000;0.000;2022-09-09T11:47:23;1.75;;;1.08;;
66707;SDS011;53622;0.000;0.000;2022-09-09T11:50:08;2.78;;;1.23;;
66707;SDS011;53622;0.000;0.000;2022-09-09T11:52:41;2.67;;;1.20;;
66707;SDS011;53622;0.000;0.000;2022-09-09T11:55:25;4.03;;;1.20;;
66707;SDS011;53622;0.000;0.000;2022-09-09T11:57:57;2.72;;;0.95;;
66707;SDS011;53622;0.000;0.000;2022-09-09T12:00:30;1.27;;;1.00;;
66707;SDS011;53622;0.000;0.000;2022-09-09T12:03:04;3.58;;;1.10;;
66707;SDS011;53622;0.000;0.000;2022-09-09T12:05:39;5.18;;;1.00;;
66707;SDS011;53622;0.000;0.000;2022-09-09T12:08:11;0.80;;;0.80;;
66707;SDS011;53622;0.000;0.000;2022-09-09T12:10:52;3.45;;;0.90;;
66707;SDS011;53622;0.000;0.000;2022-09-09T12:13:24;2.60;;;0.70;;
66707;SDS011;53622;0.000;0.000;2022-09-09T12:15:55;1.85;;;0.77;;
66707;SDS011;53622;0.000;0.000;2022-09-09T12:18:31;3.60;;;0.88;;
66707;SDS011;53622;0.000;0.000;2022-09-09T12:21:06;7.07;;;0.80;;
66707;SDS011;53622;0.000;0.000;2022-09-09T12:23:46;1.15;;;0.60;;
66707;SDS011;53622;0.000;0.000;2022-09-09T12:26:23;2.35;;;0.60;;
66707;SDS011;53622;0.000;0.000;2022-09-09T12:29:01;2.83;;;0.57;;
66707;SDS011;53622;0.000;0.000;2022-09-09T12:31:40;2.17;;;0.85;;
66707;SDS011;53622;0.000;0.000;2022-09-09T12:34:15;1.08;;;0.60;;
66707;SDS011;53622;0.000;0.000;2022-09-09T12:36:48;2.15;;;0.65;;
66707;SDS011;53622;0.000;0.000;2022-09-09T12:39:26;3.60;;;0.80;;
66707;SDS011;53622;0.000;0.000;2022-09-09T12:42:00;4.30;;;0.88;;
66707;SDS011;53622;0.000;0.000;2022-09-09T12:44:31;1.55;;;0.80;;
66707;SDS011;53622;0.000;0.000;2022-09-09T12:47:00;0.75;;;0.63;;
66707;SDS011;53622;0.000;0.000;2022-09-09T12:49:32;1.55;;;0.68;;
66707;SDS011;53622;0.000;0.000;2022-09-09T12:52:08;3.08;;;0.82;;
66707;SDS011;53622;0.000;0.000;2022-09-09T12:54:43;3.70;;;0.90;;
66707;SDS011;53622;0.000;0.000;2022-09-09T12:57:15;3.40;;;0.70;;
66707;SDS011;53622;0.000;0.000;2022-09-09T12:59:44;2.80;;;0.90;;
66707;SDS011;53622;0.000;0.000;2022-09-09T13:02:19;3.22;;;0.90;;
66707;SDS011;53622;0.000;0.000;2022-09-09T13:04:50;1.40;;;0.73;;
66707;SDS011;53622;0.000;0.000;2022-09-09T13:07:21;2.65;;;0.80;;
66707;SDS011;53622;0.000;0.000;2022-09-09T13:09:52;3.90;;;0.95;;
66707;SDS011;53622;0.000;0.000;2022-09-09T13:12:21;3.47;;;1.00;;
66707;SDS011;53622;0.000;0.000;2022-09-09T13:14:52;2.33;;;0.95;;
66707;SDS011;53622;0.000;0.000;2022-09-09T13:17:24;2.35;;;1.02;;
66707;SDS011;53622;0.000;0.000;2022-09-09T13:19:56;1.10;;;0.70;;
66707;SDS011;53622;0.000;0.000;2022-09-09T13:22:29;2.97;;;0.90;;
66707;SDS011;53622;0.000;0.000;2022-09-09T13:25:01;1.52;;;0.93;;
66707;SDS011;53622;0.000;0.000;2022-09-09T13:27:33;2.50;;;0.88;;
66707;SDS011;53622;0.000;0.000;2022-09-09T13:30:19;4.20;;;0.88;;
66707;SDS011;53622;0.000;0.000;2022-09-09T13:33:00;0.85;;;0.80;;
66707;SDS011;53622;0.000;0.000;2022-09-09T13:35:32;2.72;;;0.90;;
66707;SDS011;53622;0.000;0.000;2022-09-09T13:38:09;1.15;;;0.80;;
66707;SDS011;53622;0.000;0.000;2022-09-09T13:40:51;1.23;;;0.70;;
66707;SDS011;53622;0.000;0.000;2022-09-09T13:43:24;1.85;;;0.60;;
66707;SDS011;53622;0.000;0.000;2022-09-09T13:45:55;2.88;;;0.77;;
66707;SDS011;53622;0.000;0.000;2022-09-09T13:48:26;1.77;;;0.60;;
66707;SDS011;53622;0.000;0.000;2022-09-09T13:50:58;2.67;;;0.70;;
66707;SDS011;53622;0.000;0.000;2022-09-09T13:53:30;1.63;;;0.82;;
66707;SDS011;53622;0.000;0.000;2022-09-09T13:56:00;1.08;;;0.50;;
66707;SDS011;53622;0.000;0.000;2022-09-09T13:58:29;3.28;;;0.73;;
66707;SDS011;53622;0.000;0.000;2022-09-09T14:00:58;2.20;;;0.77;;
66707;SDS011;53622;0.000;0.000;2022-09-09T14:03:28;3.63;;;0.82;;
66707;SDS011;53622;0.000;0.000;2022-09-09T14:05:57;0.82;;;0.55;;
66707;SDS011;53622;0.000;0.000;2022-09-09T14:08:26;1.25;;;0.60;;
66707;SDS011;53622;0.000;0.000;2022-09-09T14:11:07;2.25;;;0.80;;
66707;SDS011;53622;0.000;0.000;2022-09-09T14:13:40;3.75;;;0.80;;
66707;SDS011;53622;0.000;0.000;2022-09-09T14:16:11;1.55;;;0.63;;
66707;SDS011;53622;0.000;0.000;2022-09-09T14:18:42;2.70;;;0.80;;
66707;SDS011;53622;0.000;0.000;2022-09-09T14:21:13;2.03;;;0.70;;
66707;SDS011;53622;0.000;0.000;2022-09-09T14:23:46;1.00;;;0.80;;
66707;SDS011;53622;0.000;0.000;2022-09-09T14:26:20;1.23;;;0.68;;
66707;SDS011;53622;0.000;0.000;2022-09-09T14:28:50;0.95;;;0.60;;
66707;SDS011;53622;0.000;0.000;2022-09-09T14:31:22;1.80;;;0.90;;
66707;SDS011;53622;0.000;0.000;2022-09-09T14:33:52;1.23;;;0.70;;
66707;SDS011;53622;0.000;0.000;2022-09-09T14:36:21;1.02;;;0.60;;
66707;SDS011;53622;0.000;0.000;2022-09-09T14:38:51;1.98;;;0.60;;
66707;SDS011;53622;0.000;0.000;2022-09-09T14:41:22;3.65;;;0.60;;
66707;SDS011;53622;0.000;0.000;2022-09-09T14:43:52;2.28;;;1.05;;
66707;SDS011;53622;0.000;0.000;2022-09-09T14:46:21;0.80;;;0.57;;
66707;SDS011;53622;0.000;0.000;2022-09-09T14:48:51;0.60;;;0.60;;
66707;SDS011;53622;0.000;0.000;2022-09-09T14:51:25;1.42;;;0.70;;
66707;SDS011;53622;0.000;0.000;2022-09-09T14:53:55;3.03;;;0.63;;
66707;SDS011;53622;0.000;0.000;2022-09-09T14:56:28;1.42;;;0.52;;
66707;SDS011;53622;0.000;0.000;2022-09-09T14:58:58;1.67;;;0.60;;
66707;SDS011;53622;0.000;0.000;2022-09-09T15:01:29;1.65;;;0.50;;
66707;SDS011;53622;0.000;0.000;2022-09-09T15:04:02;1.60;;;0.70;;
66707;SDS011;53622;0.000;0.000;2022-09-09T15:06:33;1.65;;;0.50;;
66707;SDS011;53622;0.000;0.000;2022-09-09T15:09:05;2.17;;;0.68;;
66707;SDS011;53622;0.000;0.000;2022-09-09T15:11:37;0.98;;;0.60;;
66707;SDS011;53622;0.000;0.000;2022-09-09T15:14:07;2.75;;;0.60;;
66707;SDS011;53622;0.000;0.000;2022-09-09T15:16:37;1.85;;;0.68;;
66707;SDS011;53622;0.000;0.000;2022-09-09T15:19:07;0.82;;;0.40;;
66707;SDS011;53622;0.000;0.000;2022-09-09T15:21:37;1.52;;;0.63;;
66707;SDS011;53622;0.000;0.000;2022-09-09T15:24:07;1.92;;;0.50;;
66707;SDS011;53622;0.000;0.000;2022-09-09T15:26:38;1.83;;;0.60;;
66707;SDS011;53622;0.000;0.000;2022-09-09T15:29:08;2.20;;;0.70;;
66707;SDS011;53622;0.000;0.000;2022-09-09T15:31:40;2.15;;;0.55;;
66707;SDS011;53622;0.000;0.000;2022-09-09T15:34:13;1.00;;;0.60;;
66707;SDS011;53622;0.000;0.000;2022-09-09T15:36:43;1.10;;;0.60;;
66707;SDS011;53622;0.000;0.000;2022-09-09T15:39:14;2.00;;;0.50;;
66707;SDS011;53622;0.000;0.000;2022-09-09T15:41:47;2.83;;;0.60;;
66707;SDS011;53622;0.000;0.000;2022-09-09T15:44:18;0.47;;;0.43;;
66707;SDS011;53622;0.000;0.000;2022-09-09T15:46:48;1.40;;;0.60;;